Time;durP1;ratioP1;P1;durP2;ratioP2;P2;SDS_P1;SDS_P2;PMS_P1;PMS_P2;Temp;Humidity;BMP_temperature;BMP_pressure;BME280_temperature;BME280_humidity;BME280_pressure;Samples;Min_cycle;Max_cycle;Signal;HPM_P1;HPM_P2
2023/06/07 00:01:33;;;;;;;8.40;6.90;;;;;;;14.76;78.10;97201.15;105078;1256;96935;-71
2023/06/07 00:04:02;;;;;;;8.00;6.90;;;;;;;14.75;77.99;97200.69;104950;1269;96624;-71
2023/06/07 00:06:32;;;;;;;8.80;7.00;;;;;;;14.70;78.15;97199.96;105176;1255;97477;-72
2023/06/07 00:08:59;;;;;;;8.50;7.70;;;;;;;14.68;78.17;97198.84;104974;1253;102335;-71
2023/06/07 00:11:26;;;;;;;10.50;7.00;;;;;;;14.69;78.35;97201.13;104840;1275;96485;-71
2023/06/07 00:13:53;;;;;;;9.10;7.80;;;;;;;14.69;78.32;97199.17;104749;1276;96753;-70
2023/06/07 00:16:19;;;;;;;17.10;7.70;;;;;;;14.69;78.41;97199.77;104912;1268;96550;-73
2023/06/07 00:18:46;;;;;;;7.70;6.90;;;;;;;14.69;78.28;97197.31;104921;1257;96821;-71
2023/06/07 00:21:13;;;;;;;8.90;7.50;;;;;;;14.70;78.31;97197.84;105037;1258;96575;-71
2023/06/07 00:23:39;;;;;;;9.80;7.70;;;;;;;14.71;78.42;97195.48;105088;1258;99967;-70
2023/06/07 00:26:06;;;;;;;9.70;7.20;;;;;;;14.70;78.43;97190.23;105113;1264;96538;-71
2023/06/07 00:28:33;;;;;;;8.70;7.50;;;;;;;14.69;78.41;97192.50;105096;1259;96792;-71
2023/06/07 00:30:59;;;;;;;8.20;7.30;;;;;;;14.70;78.48;97189.36;105000;1259;97263;-71
2023/06/07 00:33:26;;;;;;;8.00;7.20;;;;;;;14.69;78.55;97188.20;105172;1253;97584;-70
2023/06/07 00:35:53;;;;;;;15.00;6.80;;;;;;;14.69;78.66;97189.17;105228;1251;96565;-70
2023/06/07 00:38:20;;;;;;;9.40;7.10;;;;;;;14.69;78.59;97186.91;105311;1259;96544;-71
2023/06/07 00:40:46;;;;;;;8.90;7.10;;;;;;;14.70;78.53;97188.06;105032;1257;97188;-71
2023/06/07 00:43:13;;;;;;;10.20;7.30;;;;;;;14.70;78.64;97186.05;104931;1257;97883;-71
2023/06/07 00:45:40;;;;;;;8.80;6.80;;;;;;;14.69;78.57;97186.69;105119;1265;96573;-70
2023/06/07 00:48:07;;;;;;;8.30;7.40;;;;;;;14.69;78.69;97186.13;104714;1260;96990;-72
2023/06/07 00:50:35;;;;;;;6.70;6.00;;;;;;;14.67;78.69;97189.90;104955;1258;96550;-70
2023/06/07 00:53:03;;;;;;;8.30;6.50;;;;;;;14.66;78.76;97190.80;105013;1258;101843;-72
2023/06/07 00:55:32;;;;;;;8.10;6.60;;;;;;;14.66;78.81;97188.39;104664;1260;108908;-72
2023/06/07 00:57:59;;;;;;;10.10;7.70;;;;;;;14.66;78.91;97190.35;104955;1257;96483;-72
2023/06/07 01:00:25;;;;;;;9.00;7.60;;;;;;;14.64;79.00;97187.16;104898;1253;96780;-70
2023/06/07 01:02:55;;;;;;;12.50;6.90;;;;;;;14.60;79.05;97185.26;104945;1259;96747;-71
2023/06/07 01:05:22;;;;;;;7.80;6.50;;;;;;;14.59;79.09;97186.81;104972;1257;101863;-71
2023/06/07 01:07:50;;;;;;;6.70;6.00;;;;;;;14.59;79.09;97186.27;104870;1261;96640;-70
2023/06/07 01:10:17;;;;;;;9.60;7.30;;;;;;;14.60;79.01;97184.11;105111;1259;96539;-71
2023/06/07 01:12:44;;;;;;;8.20;6.90;;;;;;;14.59;79.21;97180.90;105211;1256;96568;-70
2023/06/07 01:15:13;;;;;;;9.20;7.10;;;;;;;14.59;79.24;97181.66;105041;1258;97455;-71
2023/06/07 01:17:44;;;;;;;9.10;7.00;;;;;;;14.59;79.35;97175.67;105076;1253;99931;-70
2023/06/07 01:20:16;;;;;;;9.00;7.50;;;;;;;14.57;79.42;97173.73;105039;1260;100461;-73
2023/06/07 01:22:45;;;;;;;7.90;7.00;;;;;;;14.52;79.53;97174.27;105031;1258;96547;-72
2023/06/07 01:25:12;;;;;;;9.30;7.10;;;;;;;14.48;79.55;97173.55;105269;1255;97975;-71
2023/06/07 01:27:43;;;;;;;7.80;6.90;;;;;;;14.45;79.51;97174.85;105131;1260;96551;-71
2023/06/07 01:30:13;;;;;;;7.80;6.80;;;;;;;14.47;79.75;97172.60;105097;1261;102290;-71
2023/06/07 01:32:42;;;;;;;8.80;7.10;;;;;;;14.49;79.74;97166.67;105243;1256;100442;-73
2023/06/07 01:35:11;;;;;;;8.90;6.70;;;;;;;14.51;79.75;97167.23;105329;1253;96797;-71
2023/06/07 01:37:39;;;;;;;8.50;7.10;;;;;;;14.52;79.86;97165.41;105325;1258;97080;-74
2023/06/07 01:40:08;;;;;;;8.20;7.30;;;;;;;14.53;79.92;97168.32;105068;1257;102517;-70
2023/06/07 01:42:37;;;;;;;9.50;7.70;;;;;;;14.52;80.00;97167.59;105300;1251;101651;-71
2023/06/07 01:45:09;;;;;;;8.90;8.00;;;;;;;14.49;79.96;97169.81;105095;1257;98666;-71
2023/06/07 01:47:36;;;;;;;8.40;7.60;;;;;;;14.49;80.01;97168.94;105148;1258;96862;-71
2023/06/07 01:50:04;;;;;;;8.30;7.40;;;;;;;14.49;80.07;97168.51;104912;1261;96546;-70
2023/06/07 01:52:31;;;;;;;8.90;7.30;;;;;;;14.49;80.07;97163.84;105021;1260;102843;-71
2023/06/07 01:54:58;;;;;;;11.30;7.70;;;;;;;14.49;79.95;97166.23;104819;1269;97545;-70
2023/06/07 01:57:52;;;;;;;8.20;7.50;;;;;;;14.50;79.88;97166.61;105279;1258;97848;-70
2023/06/07 02:00:32;;;;;;;10.10;7.60;;;;;;;14.48;80.02;97164.86;104941;1258;96535;-72
2023/06/07 02:03:12;;;;;;;8.80;7.60;;;;;;;14.47;80.06;97168.27;105117;1259;97055;-71
2023/06/07 02:05:45;;;;;;;9.70;8.00;;;;;;;14.45;80.09;97168.50;105136;1256;102645;-71
2023/06/07 02:08:28;;;;;;;7.80;6.80;;;;;;;14.45;80.21;97167.63;105141;1259;101617;-71
2023/06/07 02:10:55;;;;;;;;;;;;;;;14.42;80.24;97163.33;105004;1253;100098;-72
2023/06/07 02:13:23;;;;;;;7.70;6.90;;;;;;;14.38;80.44;97163.59;105139;1260;96656;-71
2023/06/07 02:15:50;;;;;;;9.60;7.90;;;;;;;14.37;80.27;97166.23;105316;1256;98385;-72
2023/06/07 02:18:19;;;;;;;8.60;7.30;;;;;;;14.38;80.17;97165.01;105126;1257;96558;-72
2023/06/07 02:20:47;;;;;;;10.00;7.80;;;;;;;14.38;80.34;97167.14;105257;1258;110465;-72
2023/06/07 02:23:14;;;;;;;8.40;7.60;;;;;;;14.39;80.38;97167.60;105099;1259;96533;-70
2023/06/07 02:25:41;;;;;;;8.20;7.40;;;;;;;14.39;80.46;97168.40;104970;1258;96585;-72
2023/06/07 02:28:08;;;;;;;7.60;6.90;;;;;;;14.39;80.53;97164.74;105064;1258;96770;-71
2023/06/07 02:30:34;;;;;;;8.10;6.70;;;;;;;14.38;80.52;97162.66;105034;1258;97848;-72
2023/06/07 02:33:01;;;;;;;9.00;7.70;;;;;;;14.39;80.58;97163.08;104975;1254;97838;-71
2023/06/07 02:35:28;;;;;;;9.10;7.30;;;;;;;14.39;80.41;97162.84;105126;1257;96585;-70
2023/06/07 02:37:55;;;;;;;9.70;7.60;;;;;;;14.40;80.68;97166.92;104729;1253;97090;-73
2023/06/07 02:40:22;;;;;;;10.60;7.60;;;;;;;14.38;80.74;97167.73;104946;1258;96551;-71
2023/06/07 02:42:49;;;;;;;8.90;8.00;;;;;;;14.34;80.89;97164.02;104745;1271;96639;-73
2023/06/07 02:45:16;;;;;;;9.10;8.00;;;;;;;14.33;80.93;97169.10;104911;1268;96787;-73
2023/06/07 02:47:44;;;;;;;9.70;8.50;;;;;;;14.31;80.98;97169.55;104946;1253;97169;-70
2023/06/07 02:50:11;;;;;;;9.30;8.20;;;;;;;14.31;81.19;97172.35;104958;1257;96551;-70
2023/06/07 02:52:38;;;;;;;9.20;7.90;;;;;;;14.32;81.19;97175.21;104971;1266;97861;-71
2023/06/07 02:55:05;;;;;;;12.20;7.80;;;;;;;14.34;81.23;97172.09;104967;1259;97874;-71
2023/06/07 02:57:32;;;;;;;11.80;9.30;;;;;;;14.36;81.20;97173.45;104933;1258;97842;-71
2023/06/07 02:59:59;;;;;;;13.30;8.30;;;;;;;14.36;81.19;97175.63;104970;1275;96515;-71
2023/06/07 03:02:26;;;;;;;10.40;8.10;;;;;;;14.33;81.40;97179.91;105036;1254;96568;-70
2023/06/07 03:04:55;;;;;;;10.00;8.60;;;;;;;14.30;81.58;97175.13;104781;1262;96704;-70
2023/06/07 03:07:22;;;;;;;9.60;8.70;;;;;;;14.29;81.64;97177.41;105111;1252;99006;-70
2023/06/07 03:09:49;;;;;;;13.10;9.40;;;;;;;14.29;81.82;97178.19;104906;1258;96768;-70
2023/06/07 03:12:15;;;;;;;10.60;8.90;;;;;;;14.32;81.93;97178.09;104906;1253;98092;-70
2023/06/07 03:14:42;;;;;;;11.90;9.30;;;;;;;14.36;81.83;97178.10;104735;1260;96651;-71
2023/06/07 03:17:09;;;;;;;9.90;8.90;;;;;;;14.37;81.79;97177.25;104810;1256;96640;-71
2023/06/07 03:19:35;;;;;;;12.60;9.40;;;;;;;14.39;81.78;97178.45;104934;1258;96569;-72
2023/06/07 03:22:06;;;;;;;9.70;8.80;;;;;;;14.40;81.95;97180.55;105010;1268;97257;-71
2023/06/07 03:24:34;;;;;;;10.20;9.10;;;;;;;14.41;81.90;97179.21;105147;1268;103027;-71
2023/06/07 03:27:01;;;;;;;12.30;9.10;;;;;;;14.45;81.95;97179.30;105272;1259;101778;-70
2023/06/07 03:29:28;;;;;;;12.10;9.10;;;;;;;14.47;81.81;97178.16;104958;1257;96582;-71
2023/06/07 03:31:54;;;;;;;12.10;9.70;;;;;;;14.49;81.77;97179.22;104999;1259;96897;-71
2023/06/07 03:34:22;;;;;;;14.70;10.00;;;;;;;14.51;81.88;97179.96;104929;1266;96663;-70
2023/06/07 03:36:49;;;;;;;13.60;9.80;;;;;;;14.52;82.10;97183.29;104975;1259;96549;-71
2023/06/07 03:39:16;;;;;;;12.00;10.00;;;;;;;14.54;81.93;97181.27;104935;1259;97033;-73
2023/06/07 03:41:42;;;;;;;13.40;10.30;;;;;;;14.56;81.91;97183.27;105027;1258;96463;-71
2023/06/07 03:44:09;;;;;;;10.80;9.30;;;;;;;14.56;82.00;97186.42;105001;1267;97185;-71
2023/06/07 03:46:36;;;;;;;11.00;9.00;;;;;;;14.57;82.12;97186.59;104917;1259;97395;-71
2023/06/07 03:49:02;;;;;;;10.80;9.70;;;;;;;14.58;82.09;97183.80;104960;1257;97447;-70
2023/06/07 03:51:32;;;;;;;13.00;10.10;;;;;;;14.60;81.96;97182.16;104981;1257;96621;-72
2023/06/07 03:53:59;;;;;;;10.10;8.90;;;;;;;14.63;81.79;97184.36;104993;1257;96468;-71
2023/06/07 03:56:26;;;;;;;10.40;9.40;;;;;;;14.64;82.10;97185.11;105028;1262;96623;-73
2023/06/07 03:58:54;;;;;;;13.20;8.90;;;;;;;14.64;82.23;97180.83;105127;1257;97153;-71
2023/06/07 04:01:25;;;;;;;11.60;9.80;;;;;;;14.65;82.20;97181.71;105356;1264;97448;-71
2023/06/07 04:03:52;;;;;;;13.40;10.30;;;;;;;14.67;82.21;97182.67;104986;1259;100566;-70
2023/06/07 04:06:20;;;;;;;12.20;9.90;;;;;;;14.69;82.20;97185.43;105071;1259;96572;-71
2023/06/07 04:08:48;;;;;;;12.90;10.80;;;;;;;14.72;82.12;97187.66;105126;1259;96602;-73
2023/06/07 04:11:14;;;;;;;13.30;10.30;;;;;;;14.74;82.10;97186.27;105009;1266;96552;-71
2023/06/07 04:13:44;;;;;;;12.50;10.30;;;;;;;14.76;82.02;97188.81;105195;1258;96607;-71
2023/06/07 04:16:11;;;;;;;11.80;10.50;;;;;;;14.79;82.17;97192.50;104917;1257;100153;-73
2023/06/07 04:18:38;;;;;;;12.40;9.90;;;;;;;14.79;82.33;97192.40;105271;1260;96549;-71
2023/06/07 04:21:05;;;;;;;11.80;10.50;;;;;;;14.80;82.42;97194.31;105220;1257;96569;-72
2023/06/07 04:23:32;;;;;;;16.00;10.40;;;;;;;14.78;82.33;97190.16;105003;1257;96556;-72
2023/06/07 04:25:59;;;;;;;13.20;10.20;;;;;;;14.78;82.43;97193.26;105037;1259;96474;-73
2023/06/07 04:28:27;;;;;;;13.50;10.50;;;;;;;14.79;82.38;97189.52;104972;1275;96530;-74
2023/06/07 04:30:57;;;;;;;15.50;11.10;;;;;;;14.82;82.33;97189.42;104978;1257;97195;-73
2023/06/07 04:33:23;;;;;;;12.40;10.90;;;;;;;14.84;82.29;97191.73;105007;1259;103017;-70
2023/06/07 04:35:51;;;;;;;14.30;10.70;;;;;;;14.87;82.39;97191.62;105205;1257;97861;-72
2023/06/07 04:38:20;;;;;;;12.00;10.80;;;;;;;14.91;82.39;97192.95;105053;1259;96721;-71
2023/06/07 04:40:49;;;;;;;11.80;10.60;;;;;;;14.94;82.34;97194.42;105237;1266;97248;-70
2023/06/07 04:43:18;;;;;;;14.30;12.00;;;;;;;14.99;82.39;97194.62;105100;1259;98331;-70
2023/06/07 04:45:54;;;;;;;11.60;10.00;;;;;;;15.03;82.37;97193.61;104861;1259;102571;-71
2023/06/07 04:48:27;;;;;;;15.70;10.50;;;;;;;15.07;82.32;97192.06;104986;1256;101908;-71
2023/06/07 04:51:03;;;;;;;19.10;11.30;;;;;;;15.12;82.28;97194.40;104925;1271;100521;-73
2023/06/07 04:53:36;;;;;;;12.70;11.30;;;;;;;15.16;82.29;97192.27;104982;1267;96540;-71
2023/06/07 04:56:04;;;;;;;14.30;10.70;;;;;;;15.21;82.22;97187.62;104847;1261;97287;-71
2023/06/07 04:58:31;;;;;;;12.40;10.60;;;;;;;15.27;82.28;97185.42;105055;1271;101289;-71
2023/06/07 05:00:58;;;;;;;15.40;11.30;;;;;;;15.32;82.10;97187.53;104999;1261;102087;-71
2023/06/07 05:03:25;;;;;;;14.30;10.40;;;;;;;15.37;82.22;97187.77;105068;1258;96720;-72
2023/06/07 05:05:52;;;;;;;11.40;10.20;;;;;;;15.43;82.21;97185.97;105004;1268;97558;-70
2023/06/07 05:08:21;;;;;;;16.50;10.30;;;;;;;15.49;82.18;97188.46;105209;1257;97460;-71
2023/06/07 05:10:48;;;;;;;16.90;10.60;;;;;;;15.55;82.04;97186.41;104800;1257;102699;-69
2023/06/07 05:13:15;;;;;;;14.40;10.80;;;;;;;15.61;82.01;97189.16;104753;1258;98379;-71
2023/06/07 05:15:44;;;;;;;15.10;10.90;;;;;;;15.68;82.07;97184.17;105105;1257;97845;-71
2023/06/07 05:18:12;;;;;;;13.20;11.20;;;;;;;15.76;81.97;97181.63;105225;1266;96552;-72
2023/06/07 05:20:38;;;;;;;13.80;11.20;;;;;;;15.84;81.79;97183.96;105036;1266;97762;-71
2023/06/07 05:23:05;;;;;;;13.60;11.90;;;;;;;15.91;81.61;97184.02;104956;1259;96604;-72
2023/06/07 05:25:32;;;;;;;13.80;11.80;;;;;;;15.95;81.57;97185.77;104728;1264;96762;-71
2023/06/07 05:27:58;;;;;;;13.30;11.40;;;;;;;16.03;81.54;97185.65;105196;1268;96553;-71
2023/06/07 05:30:25;;;;;;;13.50;11.40;;;;;;;16.08;81.38;97185.44;105064;1264;97865;-72
2023/06/07 05:32:52;;;;;;;13.40;11.80;;;;;;;16.11;81.25;97180.48;104955;1267;102659;-71
2023/06/07 05:35:19;;;;;;;13.60;10.60;;;;;;;16.13;81.31;97182.36;104938;1266;96537;-73
2023/06/07 05:37:46;;;;;;;13.50;11.10;;;;;;;16.15;81.57;97185.98;104945;1257;97275;-71
2023/06/07 05:40:16;;;;;;;17.20;13.10;;;;;;;16.17;81.57;97186.06;104961;1253;97518;-71
2023/06/07 05:42:42;;;;;;;12.60;10.80;;;;;;;16.18;81.43;97188.95;104989;1258;97170;-71
2023/06/07 05:45:09;;;;;;;14.10;11.90;;;;;;;16.18;81.07;97192.38;104992;1267;97183;-70
2023/06/07 05:47:36;;;;;;;14.50;11.50;;;;;;;16.18;81.16;97192.44;105007;1257;97912;-73
2023/06/07 05:50:04;;;;;;;13.00;11.40;;;;;;;16.23;81.24;97192.73;104955;1267;97795;-72
2023/06/07 05:52:31;;;;;;;15.00;9.90;;;;;;;16.33;81.07;97194.15;105006;1257;96527;-71
2023/06/07 05:54:58;;;;;;;10.50;9.10;;;;;;;16.39;80.88;97198.11;104963;1267;96556;-74
2023/06/07 05:57:25;;;;;;;12.90;10.30;;;;;;;16.46;80.88;97197.38;104969;1254;96789;-72
2023/06/07 05:59:52;;;;;;;13.20;10.60;;;;;;;16.51;80.79;97194.34;105082;1259;97121;-72
2023/06/07 06:02:20;;;;;;;12.00;10.50;;;;;;;16.57;80.81;97196.79;104890;1265;97954;-71
2023/06/07 06:04:51;;;;;;;14.00;11.00;;;;;;;16.63;80.73;97196.64;104952;1258;97277;-72
2023/06/07 06:07:19;;;;;;;13.40;10.60;;;;;;;16.71;80.80;97197.66;105167;1268;101165;-72
2023/06/07 06:09:46;;;;;;;11.70;10.40;;;;;;;16.79;80.87;97193.98;104731;1269;102218;-71
2023/06/07 06:12:13;;;;;;;11.00;9.60;;;;;;;16.87;80.64;97195.50;104761;1273;96677;-72
2023/06/07 06:14:40;;;;;;;15.30;10.50;;;;;;;16.95;80.48;97196.27;105013;1268;97449;-71
2023/06/07 06:17:07;;;;;;;14.60;10.20;;;;;;;17.02;80.43;97196.02;104950;1267;96746;-73
2023/06/07 06:19:33;;;;;;;11.80;9.90;;;;;;;17.09;80.35;97189.38;104980;1264;96628;-72
2023/06/07 06:22:00;;;;;;;12.00;9.70;;;;;;;17.16;80.19;97189.55;105010;1266;96549;-73
2023/06/07 06:24:27;;;;;;;11.40;9.70;;;;;;;17.24;79.98;97190.29;105038;1267;97226;-71
2023/06/07 06:26:53;;;;;;;11.60;10.50;;;;;;;17.29;79.97;97190.55;105082;1260;96644;-72
2023/06/07 06:29:21;;;;;;;10.30;9.30;;;;;;;17.34;79.88;97187.55;104976;1259;97774;-72
2023/06/07 06:31:48;;;;;;;10.80;9.70;;;;;;;17.38;79.71;97190.80;105268;1259;97362;-73
2023/06/07 06:34:15;;;;;;;9.70;8.70;;;;;;;17.43;79.67;97188.87;105266;1266;96543;-74
2023/06/07 06:36:41;;;;;;;10.70;9.50;;;;;;;17.50;79.40;97191.61;105002;1257;96518;-72
2023/06/07 06:39:08;;;;;;;10.00;8.50;;;;;;;17.56;79.24;97192.73;104969;1268;102345;-73
2023/06/07 06:41:35;;;;;;;10.60;8.50;;;;;;;17.61;79.22;97191.77;105278;1266;96562;-72
2023/06/07 06:44:02;;;;;;;8.00;7.20;;;;;;;17.66;79.19;97193.02;105269;1257;97486;-72
2023/06/07 06:46:29;;;;;;;8.20;7.00;;;;;;;17.72;78.84;97194.48;105097;1276;96632;-71
2023/06/07 06:48:55;;;;;;;8.70;7.30;;;;;;;17.77;78.65;97194.29;104983;1254;96709;-72
2023/06/07 06:51:22;;;;;;;8.30;7.20;;;;;;;17.81;78.56;97192.86;105112;1257;101938;-73
2023/06/07 06:53:49;;;;;;;8.20;6.70;;;;;;;17.82;78.35;97187.56;105185;1265;96630;-73
2023/06/07 06:56:15;;;;;;;13.30;7.00;;;;;;;17.83;77.90;97187.91;105223;1259;96710;-73
2023/06/07 06:58:42;;;;;;;7.10;6.40;;;;;;;17.79;77.50;97189.89;105273;1268;97574;-71
2023/06/07 07:01:13;;;;;;;8.90;6.40;;;;;;;17.79;77.56;97187.81;105103;1275;97739;-72
2023/06/07 07:03:40;;;;;;;7.70;6.10;;;;;;;17.83;77.75;97182.93;105197;1266;100341;-71
2023/06/07 07:06:08;;;;;;;9.00;6.30;;;;;;;17.84;77.52;97183.55;105264;1257;96604;-72
2023/06/07 07:08:35;;;;;;;7.10;5.90;;;;;;;17.85;77.29;97184.27;105149;1258;97160;-71
2023/06/07 07:11:03;;;;;;;6.80;6.10;;;;;;;17.83;77.22;97187.73;104948;1265;102683;-71
2023/06/07 07:13:31;;;;;;;6.80;6.10;;;;;;;17.85;77.17;97190.39;105000;1257;96780;-71
2023/06/07 07:15:58;;;;;;;7.40;6.60;;;;;;;17.87;77.12;97187.50;104993;1258;99720;-72
2023/06/07 07:18:25;;;;;;;6.70;6.00;;;;;;;17.87;76.90;97185.75;105074;1260;96625;-70
2023/06/07 07:20:52;;;;;;;7.00;6.30;;;;;;;17.88;77.01;97186.13;105328;1257;97186;-72
2023/06/07 07:23:18;;;;;;;6.60;5.90;;;;;;;17.91;76.88;97188.17;105236;1266;97481;-71
2023/06/07 07:25:45;;;;;;;8.20;7.10;;;;;;;17.95;76.76;97189.02;104966;1257;97830;-73
2023/06/07 07:28:12;;;;;;;8.30;7.00;;;;;;;18.00;76.69;97192.00;105017;1256;96551;-74
2023/06/07 07:30:39;;;;;;;8.20;6.80;;;;;;;18.03;76.28;97196.06;104995;1257;97079;-73
2023/06/07 07:33:06;;;;;;;8.80;7.10;;;;;;;18.06;76.21;97194.55;105160;1253;97490;-72
2023/06/07 07:35:33;;;;;;;7.30;6.60;;;;;;;18.09;76.32;97191.18;105230;1257;97743;-74
2023/06/07 07:38:01;;;;;;;8.60;5.90;;;;;;;18.14;76.35;97194.16;104954;1269;96522;-71
2023/06/07 07:40:28;;;;;;;7.60;6.80;;;;;;;18.15;76.25;97193.95;105009;1254;96765;-71
2023/06/07 07:42:55;;;;;;;7.10;6.40;;;;;;;18.19;76.20;97196.10;104891;1260;97366;-71
2023/06/07 07:45:22;;;;;;;8.70;6.60;;;;;;;18.23;75.86;97197.05;105253;1259;97489;-73
2023/06/07 07:47:49;;;;;;;10.30;6.60;;;;;;;18.26;75.80;97198.21;105201;1258;97943;-71
2023/06/07 07:50:16;;;;;;;7.10;6.40;;;;;;;18.30;75.56;97201.30;104953;1257;96524;-72
2023/06/07 07:52:43;;;;;;;9.00;6.20;;;;;;;18.33;75.52;97196.84;104713;1257;97023;-71
2023/06/07 07:55:11;;;;;;;8.00;7.20;;;;;;;18.38;75.52;97192.80;104881;1262;98357;-71
2023/06/07 07:57:37;;;;;;;7.90;6.90;;;;;;;18.43;75.46;97191.64;104983;1254;97474;-72
2023/06/07 08:00:06;;;;;;;9.60;7.00;;;;;;;18.48;75.40;97190.88;104987;1266;97842;-71
2023/06/07 08:02:32;;;;;;;9.90;8.20;;;;;;;18.53;75.26;97193.04;104871;1260;96988;-70
2023/06/07 08:05:00;;;;;;;10.10;8.70;;;;;;;18.58;75.41;97193.96;105255;1257;96645;-74
2023/06/07 08:07:26;;;;;;;8.70;7.70;;;;;;;18.62;75.12;97197.36;104980;1257;96714;-71
2023/06/07 08:09:53;;;;;;;9.40;7.20;;;;;;;18.66;75.05;97196.29;105225;1258;96630;-71
2023/06/07 08:12:20;;;;;;;8.50;7.10;;;;;;;18.72;74.96;97199.65;105140;1268;96539;-72
2023/06/07 08:14:47;;;;;;;7.90;7.10;;;;;;;18.78;74.59;97200.22;105094;1257;98210;-71
2023/06/07 08:17:14;;;;;;;7.20;6.10;;;;;;;18.84;74.52;97203.40;104979;1268;96639;-70
2023/06/07 08:19:40;;;;;;;6.90;6.20;;;;;;;18.92;74.30;97203.66;104988;1257;96540;-72
2023/06/07 08:22:07;;;;;;;9.50;6.60;;;;;;;19.00;74.51;97203.60;104748;1269;96642;-72
2023/06/07 08:24:34;;;;;;;10.60;7.10;;;;;;;19.06;74.35;97203.96;105040;1268;96572;-72
2023/06/07 08:27:00;;;;;;;9.80;6.50;;;;;;;19.12;74.15;97204.08;104953;1257;102606;-75
2023/06/07 08:29:27;;;;;;;8.90;6.00;;;;;;;19.16;73.75;97201.08;104963;1257;100079;-72
2023/06/07 08:31:55;;;;;;;7.00;6.00;;;;;;;19.22;73.37;97203.23;104924;1267;96635;-72
2023/06/07 08:34:27;;;;;;;8.90;6.40;;;;;;;19.25;73.44;97202.34;105028;1257;97452;-72
2023/06/07 08:36:55;;;;;;;6.90;6.20;;;;;;;19.32;73.43;97204.66;104707;1269;97055;-74
2023/06/07 08:39:22;;;;;;;8.30;6.10;;;;;;;19.36;73.32;97199.84;105023;1267;102707;-72
2023/06/07 08:41:50;;;;;;;7.60;5.60;;;;;;;19.39;73.24;97201.71;104975;1257;101719;-74
2023/06/07 08:44:17;;;;;;;5.00;4.60;;;;;;;19.41;72.97;97200.67;104871;1269;96685;-72
2023/06/07 08:46:46;;;;;;;5.30;3.70;;;;;;;19.45;72.85;97201.77;104940;1257;96671;-71
2023/06/07 08:49:14;;;;;;;4.70;4.20;;;;;;;19.46;72.69;97203.79;104959;1257;97059;-72
2023/06/07 08:51:43;;;;;;;5.30;3.70;;;;;;;19.48;72.71;97201.95;105043;1258;96666;-71
2023/06/07 08:54:13;;;;;;;4.30;3.40;;;;;;;19.52;72.62;97200.82;104955;1254;101680;-72
2023/06/07 08:56:42;;;;;;;6.20;3.50;;;;;;;19.56;72.27;97197.47;104651;1269;98535;-72
2023/06/07 08:59:10;;;;;;;5.30;3.10;;;;;;;19.58;72.07;97198.06;104641;1254;97551;-73
2023/06/07 09:01:37;;;;;;;3.80;3.30;;;;;;;19.60;72.06;97193.70;105151;1254;97069;-72
2023/06/07 09:04:04;;;;;;;4.50;3.20;;;;;;;19.64;71.87;97195.35;104976;1258;97251;-72
2023/06/07 09:06:34;;;;;;;3.60;2.90;;;;;;;19.68;71.72;97196.54;104991;1255;97671;-72
2023/06/07 09:09:02;;;;;;;6.40;3.30;;;;;;;19.71;71.48;97199.33;105003;1257;100683;-72
2023/06/07 09:11:30;;;;;;;4.80;3.10;;;;;;;19.74;71.56;97201.69;104958;1257;96563;-72
2023/06/07 09:13:57;;;;;;;4.70;3.40;;;;;;;19.76;71.54;97202.63;104977;1254;97944;-72
2023/06/07 09:16:24;;;;;;;4.50;3.20;;;;;;;19.80;71.65;97202.66;104953;1264;97419;-72
2023/06/07 09:18:54;;;;;;;5.00;2.60;;;;;;;19.82;71.42;97205.19;104978;1266;98800;-75
2023/06/07 09:21:24;;;;;;;3.50;3.20;;;;;;;19.84;71.40;97203.48;105033;1254;100500;-73
2023/06/07 09:23:51;;;;;;;4.80;3.70;;;;;;;19.88;71.27;97203.71;104998;1265;97903;-72
2023/06/07 09:26:20;;;;;;;3.80;3.30;;;;;;;19.92;71.20;97199.37;104990;1267;97900;-72
2023/06/07 09:28:47;;;;;;;5.30;2.80;;;;;;;19.98;71.43;97200.57;104958;1266;104191;-72
2023/06/07 09:31:29;;;;;;;3.80;2.90;;;;;;;20.05;71.19;97197.10;104926;1257;100218;-75
2023/06/07 09:33:56;;;;;;;6.00;3.00;;;;;;;20.10;70.62;97191.13;104984;1257;100259;-74
2023/06/07 09:36:23;;;;;;;3.10;2.30;;;;;;;20.17;70.26;97195.05;104976;1267;97883;-71
2023/06/07 09:38:50;;;;;;;4.20;2.50;;;;;;;20.26;70.21;97197.45;105283;1256;97985;-72
2023/06/07 09:41:17;;;;;;;3.90;2.60;;;;;;;20.38;69.85;97198.48;105265;1268;98008;-72
2023/06/07 09:43:50;;;;;;;3.10;2.80;;;;;;;20.48;69.87;97196.97;104844;1258;188889;-73
2023/06/07 09:46:19;;;;;;;3.30;2.70;;;;;;;20.62;69.84;97193.91;104937;1256;100549;-72
2023/06/07 09:48:50;;;;;;;3.10;2.40;;;;;;;20.76;69.58;97192.19;104662;1260;97866;-72
2023/06/07 09:51:19;;;;;;;2.30;2.10;;;;;;;20.90;69.44;97189.31;104964;1257;98327;-73
2023/06/07 09:53:54;;;;;;;3.10;2.10;;;;;;;21.03;68.69;97190.79;104980;1258;103945;-72
2023/06/07 09:56:22;;;;;;;2.70;2.30;;;;;;;21.13;67.88;97186.77;104961;1267;101972;-73
2023/06/07 09:59:05;;;;;;;3.40;2.40;;;;;;;21.13;67.13;97188.70;104699;1254;100544;-73
2023/06/07 10:01:37;;;;;;;3.00;2.50;;;;;;;21.17;67.28;97186.60;105094;1257;98030;-73
2023/06/07 10:04:06;;;;;;;3.60;2.00;;;;;;;21.28;66.67;97186.20;104853;1254;98822;-73
2023/06/07 10:06:37;;;;;;;5.10;2.10;;;;;;;21.35;66.35;97182.60;105008;1257;103846;-72
2023/06/07 10:09:06;;;;;;;4.70;2.40;;;;;;;21.42;66.24;97177.65;104980;1264;102014;-75
2023/06/07 10:11:36;;;;;;;2.70;2.40;;;;;;;21.54;66.26;97175.20;104950;1257;100445;-73
2023/06/07 10:14:10;;;;;;;4.10;2.80;;;;;;;21.66;66.02;97173.67;105062;1267;99151;-72
2023/06/07 10:16:45;;;;;;;3.10;2.30;;;;;;;21.72;65.79;97172.97;105112;1259;98430;-74
2023/06/07 10:19:18;;;;;;;2.30;2.10;;;;;;;21.77;65.65;97169.40;104873;1261;104118;-71
2023/06/07 10:21:48;;;;;;;3.10;2.20;;;;;;;21.86;65.35;97171.13;104951;1257;102463;-72
2023/06/07 10:24:24;;;;;;;2.90;2.20;;;;;;;21.98;65.38;97172.56;104888;1259;100176;-72
2023/06/07 10:26:58;;;;;;;2.50;2.10;;;;;;;22.10;65.06;97169.43;105146;1258;97905;-73
2023/06/07 10:29:46;;;;;;;3.00;2.00;;;;;;;22.12;64.19;97162.27;104990;1254;98394;-73
2023/06/07 10:32:27;;;;;;;2.20;1.90;;;;;;;22.13;63.83;97160.61;104900;1260;102514;-73
2023/06/07 10:34:56;;;;;;;2.70;2.00;;;;;;;22.20;63.65;97158.50;105112;1266;102064;-72
2023/06/07 10:37:24;;;;;;;1.80;1.70;;;;;;;22.26;63.47;97158.48;104907;1266;100289;-73
2023/06/07 10:39:51;;;;;;;3.60;2.30;;;;;;;22.36;63.15;97158.14;104948;1264;97855;-72
2023/06/07 10:42:18;;;;;;;2.90;2.00;;;;;;;22.47;62.97;97153.17;105010;1257;97879;-76
2023/06/07 10:44:45;;;;;;;2.80;2.10;;;;;;;22.58;62.89;97153.38;105009;1257;97977;-73
2023/06/07 10:47:21;;;;;;;2.50;1.90;;;;;;;22.63;62.02;97150.71;104973;1253;97987;-72
2023/06/07 10:49:49;;;;;;;2.80;2.60;;;;;;;22.70;62.08;97147.60;104984;1257;100236;-73
2023/06/07 10:52:16;;;;;;;3.60;2.10;;;;;;;22.79;62.06;97145.69;104940;1253;98023;-76
2023/06/07 10:54:44;;;;;;;1.80;1.60;;;;;;;22.87;61.80;97146.52;104978;1254;97852;-76
2023/06/07 10:57:12;;;;;;;2.40;1.90;;;;;;;22.94;61.42;97145.99;104767;1269;104046;-72
2023/06/07 10:59:41;;;;;;;2.50;2.10;;;;;;;23.06;61.21;97146.52;105045;1257;101718;-74
2023/06/07 11:02:27;;;;;;;4.40;2.30;;;;;;;23.21;61.11;97141.52;105009;1257;100013;-73
2023/06/07 11:05:03;;;;;;;1.90;1.80;;;;;;;23.37;61.20;97136.80;104947;1267;97995;-72
2023/06/07 11:07:32;;;;;;;3.60;1.90;;;;;;;23.50;61.04;97134.26;105005;1268;98425;-72
2023/06/07 11:10:02;;;;;;;3.00;1.70;;;;;;;23.57;60.36;97132.97;105032;1256;104021;-74
2023/06/07 11:12:35;;;;;;;2.70;1.80;;;;;;;23.91;60.42;97129.82;105094;1253;101867;-73
2023/06/07 11:15:17;;;;;;;2.00;1.90;;;;;;;24.16;59.38;97134.88;105064;1258;100233;-73
2023/06/07 11:18:00;;;;;;;2.60;1.80;;;;;;;24.24;58.81;97133.39;104997;1257;98700;-73
2023/06/07 11:20:36;;;;;;;3.70;2.10;;;;;;;24.27;58.45;97135.16;105277;1256;99256;-75
2023/06/07 11:23:29;;;;;;;3.50;2.20;;;;;;;24.25;58.10;97133.91;105001;1257;103997;-73
2023/06/07 11:26:05;;;;;;;1.90;1.60;;;;;;;24.30;57.88;97134.03;104955;1259;102006;-75